Saint Paul, Canada
Current Conditions -  °F | °C
As of 12:00 AM on Wednesday 26 Nov 2014 (Local Time) from CYOD Reporting Station
Light Snow Light Snow  
Wind Chill: -8°   Ceiling: 2000
Heat Index:   Visibility: 15mi
Dew Point: -6°   Wind: 5mph
Humidity: 72%   Direction: 90°E
Pressure: 30.3"   Gusts: NA
Location:  53.98°N, 111.28°W
Report Text: CYOD 260700Z 09004KT 15SM -SN BKN020 M17/M21 A3030 RMK SC6SLP310
Loading
Personal Weather Stations






























Interactive Weather Map New forecast layout! Learn more

10-Day Weather Forecast

Advertisements
Track Severe Weather on mobile